Time;durP1;ratioP1;P1;durP2;ratioP2;P2;SDS_P1;SDS_P2;PMS_P1;PMS_P2;Temp;Humidity;BMP_temperature;BMP_pressure;BME280_temperature;BME280_humidity;BME280_pressure;Samples;Min_cycle;Max_cycle;Signal;HPM_P1;HPM_P2
2022/05/20 00:00:59;;;;;;;5.90;2.88;;;14.30;88.40;;;;;;5090931;28;20102;-78
2022/05/20 00:03:31;;;;;;;4.75;3.28;;;14.40;88.50;;;;;;5071441;28;20093;-78
2022/05/20 00:05:59;;;;;;;5.03;2.72;;;14.30;88.40;;;;;;5080587;28;20048;-78
2022/05/20 00:08:29;;;;;;;6.70;3.45;;;14.30;88.40;;;;;;5094709;28;20076;-78
2022/05/20 00:11:35;;;;;;;5.38;3.33;;;14.30;88.40;;;;;;5010432;28;20191;-78
2022/05/20 00:14:05;;;;;;;7.15;3.03;;;14.30;88.50;;;;;;5032020;28;20045;-77
2022/05/20 00:16:36;;;;;;;4.85;3.13;;;14.30;88.60;;;;;;5032257;28;20573;-78
2022/05/20 00:19:06;;;;;;;6.03;2.95;;;14.30;88.60;;;;;;5032990;28;20037;-78
2022/05/20 00:21:38;;;;;;;5.07;3.00;;;14.30;88.60;;;;;;5033550;28;20041;-78
2022/05/20 00:24:05;;;;;;;7.10;3.40;;;14.30;88.70;;;;;;5024860;28;20060;-78
2022/05/20 00:26:38;;;;;;;5.15;3.13;;;14.20;88.70;;;;;;5044985;28;20053;-78
2022/05/20 00:29:05;;;;;;;5.78;3.30;;;14.20;88.70;;;;;;5032820;28;20037;-78
2022/05/20 00:31:32;;;;;;;5.70;3.47;;;14.20;88.80;;;;;;5024939;28;20045;-80
2022/05/20 00:33:59;;;;;;;5.97;3.05;;;14.20;88.80;;;;;;5016112;28;20071;-80
2022/05/20 00:36:26;;;;;;;5.13;3.53;;;14.20;88.90;;;;;;5049286;28;20049;-80
2022/05/20 00:38:53;;;;;;;3.67;2.90;;;14.10;88.90;;;;;;5031143;28;20137;-79
2022/05/20 00:41:20;;;;;;;5.97;3.20;;;14.20;89.00;;;;;;5047505;28;20452;-80
2022/05/20 00:43:49;;;;;;;6.38;3.22;;;14.10;88.90;;;;;;5089750;28;20040;-80
2022/05/20 00:46:21;;;;;;;6.85;4.07;;;14.10;89.00;;;;;;5079245;28;20109;-79
2022/05/20 00:49:10;;;;;;;7.95;3.53;;;14.00;89.00;;;;;;5093856;28;20483;-80
2022/05/20 00:51:43;;;;;;;5.43;3.28;;;14.00;89.00;;;;;;5084931;28;20134;-80
2022/05/20 00:54:16;;;;;;;5.00;2.65;;;14.00;89.00;;;;;;5103615;28;20165;-80
2022/05/20 00:57:00;;;;;;;7.07;3.03;;;14.00;89.00;;;;;;5093095;28;20040;-80
2022/05/20 00:59:30;;;;;;;5.43;3.40;;;14.00;89.00;;;;;;5086738;28;20043;-81
2022/05/20 01:02:03;;;;;;;5.03;3.28;;;14.00;89.10;;;;;;5097772;28;20042;-80
2022/05/20 01:04:31;;;;;;;5.40;3.00;;;13.90;89.10;;;;;;5113168;28;20048;-80
2022/05/20 01:06:58;;;;;;;7.55;3.00;;;13.90;89.20;;;;;;5080394;28;20468;-80
2022/05/20 01:09:25;;;;;;;6.38;3.70;;;13.90;89.30;;;;;;5087477;28;20067;-80
2022/05/20 01:11:52;;;;;;;6.18;3.25;;;13.90;89.20;;;;;;5082716;28;20421;-80
2022/05/20 01:14:25;;;;;;;6.25;2.83;;;13.90;89.30;;;;;;5080328;28;20380;-80
2022/05/20 01:16:52;;;;;;;;;;;13.90;89.30;;;;;;5113515;28;20039;-79
2022/05/20 01:19:40;;;;;;;6.07;2.28;;;13.80;89.30;;;;;;5118258;28;19965;-80
2022/05/20 01:22:11;;;;;;;4.15;1.88;;;13.80;89.20;;;;;;5118521;28;20463;-79
2022/05/20 01:24:38;;;;;;;4.50;2.45;;;13.80;89.30;;;;;;5102369;28;20133;-80
2022/05/20 01:27:05;;;;;;;4.68;2.67;;;13.80;89.30;;;;;;5098103;28;20116;-80
2022/05/20 01:29:33;;;;;;;5.78;2.78;;;13.80;89.40;;;;;;5100136;28;20059;-80
2022/05/20 01:32:00;;;;;;;4.50;2.50;;;13.80;89.40;;;;;;5102493;28;20040;-80
2022/05/20 01:34:27;;;;;;;5.47;2.95;;;13.70;89.40;;;;;;5101892;28;20047;-80
2022/05/20 01:36:54;;;;;;;6.10;2.92;;;13.70;89.40;;;;;;5097849;28;20039;-80
2022/05/20 01:39:21;;;;;;;5.55;3.03;;;13.70;89.50;;;;;;5084501;28;20051;-79
2022/05/20 01:41:52;;;;;;;8.90;3.88;;;13.70;89.50;;;;;;5081898;28;20032;-80
2022/05/20 01:44:32;;;;;;;4.00;2.53;;;13.70;89.50;;;;;;5096366;28;20043;-79
2022/05/20 01:47:05;;;;;;;4.40;3.00;;;13.70;89.60;;;;;;5101992;28;20032;-80
2022/05/20 01:49:54;;;;;;;4.65;2.95;;;13.70;89.70;;;;;;5099104;28;20146;-80
2022/05/20 01:52:30;;;;;;;5.38;2.95;;;13.60;89.60;;;;;;5096993;28;20054;-80
2022/05/20 01:55:14;;;;;;;4.03;2.53;;;13.60;89.70;;;;;;5109372;28;20039;-80
2022/05/20 01:58:02;;;;;;;4.20;2.30;;;13.60;89.70;;;;;;5107156;28;20044;-80
2022/05/20 02:00:31;;;;;;;3.90;2.55;;;13.50;90.10;;;;;;5094863;28;20040;-80
2022/05/20 02:03:08;;;;;;;5.70;3.15;;;13.50;89.90;;;;;;5108466;28;20510;-79
2022/05/20 02:05:57;;;;;;;6.47;2.80;;;13.50;89.90;;;;;;5113100;28;20093;-79
2022/05/20 02:08:27;;;;;;;5.07;2.95;;;13.50;90.00;;;;;;5095784;28;20062;-79
2022/05/20 02:11:06;;;;;;;5.28;2.92;;;13.40;90.00;;;;;;5112722;28;20044;-79
2022/05/20 02:13:37;;;;;;;5.35;2.85;;;13.40;90.00;;;;;;5112552;28;20051;-80
2022/05/20 02:16:12;;;;;;;5.55;2.47;;;13.40;90.00;;;;;;5101272;28;20059;-79
2022/05/20 02:18:52;;;;;;;6.68;2.55;;;13.40;90.00;;;;;;5128245;27;20437;-79
2022/05/20 02:21:24;;;;;;;4.43;2.58;;;13.30;90.00;;;;;;5114132;28;20054;-79
2022/05/20 02:23:55;;;;;;;5.93;3.35;;;13.30;90.00;;;;;;5094532;28;20700;-80
2022/05/20 02:26:28;;;;;;;5.22;2.85;;;13.30;90.00;;;;;;5107606;28;20042;-79
2022/05/20 02:29:12;;;;;;;4.82;2.85;;;13.30;90.10;;;;;;5107255;28;20035;-79
2022/05/20 02:31:57;;;;;;;5.95;2.63;;;13.20;90.00;;;;;;5104586;28;20130;-79
2022/05/20 02:34:24;;;;;;;3.95;2.45;;;13.20;90.10;;;;;;5086271;28;20071;-79
2022/05/20 02:36:52;;;;;;;3.58;2.13;;;13.20;90.10;;;;;;5078968;28;20044;-79
2022/05/20 02:39:21;;;;;;;5.75;2.53;;;13.20;90.10;;;;;;5095486;28;20043;-79
2022/05/20 02:41:49;;;;;;;5.50;2.97;;;13.20;90.10;;;;;;5059511;28;20089;-79
2022/05/20 02:44:16;;;;;;;4.32;2.45;;;13.10;90.10;;;;;;5091109;28;20135;-78
2022/05/20 02:46:47;;;;;;;4.95;2.97;;;13.10;90.10;;;;;;5113247;28;20035;-78
2022/05/20 02:49:15;;;;;;;5.00;2.60;;;13.10;90.10;;;;;;5112256;28;20052;-78
2022/05/20 02:51:51;;;;;;;3.80;2.05;;;13.00;90.10;;;;;;5075098;28;20047;-78
2022/05/20 02:54:18;;;;;;;4.50;2.20;;;13.00;90.10;;;;;;5088812;28;20130;-78
2022/05/20 02:56:45;;;;;;;4.05;2.50;;;13.00;90.10;;;;;;5094513;28;20039;-79
2022/05/20 03:04:50;;;;;;;4.53;2.60;;;12.90;90.20;;;;;;5108221;28;20036;-79
2022/05/20 03:07:17;;;;;;;4.38;2.65;;;12.90;90.10;;;;;;5074316;28;20055;-79
2022/05/20 03:09:44;;;;;;;5.15;3.10;;;12.90;90.20;;;;;;5093481;28;20548;-78
2022/05/20 03:12:13;;;;;;;4.82;2.55;;;12.90;90.20;;;;;;5079084;28;20078;-78
2022/05/20 03:14:40;;;;;;;6.35;3.03;;;12.80;90.20;;;;;;5105368;28;20071;-79
2022/05/20 03:17:08;;;;;;;5.35;2.90;;;12.80;90.30;;;;;;5113371;28;20057;-79
2022/05/20 03:19:37;;;;;;;4.20;2.60;;;12.80;90.30;;;;;;5082271;28;20142;-78
2022/05/20 03:22:06;;;;;;;4.82;2.88;;;12.80;90.30;;;;;;5110888;28;20044;-79
2022/05/20 03:24:33;;;;;;;3.95;2.42;;;12.80;90.30;;;;;;5105109;28;20495;-79
2022/05/20 03:27:00;;;;;;;4.63;2.53;;;12.80;90.60;;;;;;5074404;28;20538;-79
2022/05/20 03:29:28;;;;;;;4.63;2.45;;;12.80;90.40;;;;;;5088732;28;20484;-79
2022/05/20 03:31:55;;;;;;;5.00;2.97;;;12.80;90.30;;;;;;5105748;28;20040;-79
2022/05/20 03:34:22;;;;;;;5.72;2.70;;;12.80;90.30;;;;;;5074782;28;20051;-79
2022/05/20 03:36:50;;;;;;;5.80;2.72;;;12.70;90.30;;;;;;5092353;28;20036;-78
2022/05/20 03:39:23;;;;;;;4.18;2.63;;;12.80;90.30;;;;;;5088194;28;20052;-78
2022/05/20 03:41:50;;;;;;;4.50;2.42;;;12.70;90.30;;;;;;5103818;28;20054;-78
2022/05/20 03:44:21;;;;;;;3.58;2.35;;;12.70;90.30;;;;;;5109822;28;20040;-78
2022/05/20 03:46:54;;;;;;;4.07;2.38;;;12.70;90.30;;;;;;5110070;28;20180;-78
2022/05/20 03:49:24;;;;;;;5.97;3.17;;;12.70;90.40;;;;;;5110228;28;20039;-79
2022/05/20 03:51:52;;;;;;;3.65;2.33;;;12.70;90.40;;;;;;5110432;28;20544;-79
2022/05/20 03:54:23;;;;;;;4.90;2.92;;;12.60;90.40;;;;;;5093571;28;20059;-79
2022/05/20 03:56:51;;;;;;;6.30;4.05;;;12.70;90.40;;;;;;5084746;28;20101;-79
2022/05/20 03:59:21;;;;;;;4.72;2.75;;;12.70;90.40;;;;;;5111080;28;20495;-79
2022/05/20 04:02:00;;;;;;;4.22;2.30;;;12.70;90.40;;;;;;5069821;28;20044;-79
2022/05/20 04:04:47;;;;;;;4.43;2.53;;;12.70;90.40;;;;;;5087467;28;20472;-79
2022/05/20 04:07:23;;;;;;;5.25;3.13;;;12.70;90.30;;;;;;5110483;28;20109;-79
2022/05/20 04:09:51;;;;;;;4.38;2.35;;;12.70;90.40;;;;;;5110680;28;20129;-79
2022/05/20 04:12:36;;;;;;;3.50;2.00;;;12.70;90.40;;;;;;5077264;28;20077;-79
2022/05/20 04:15:05;;;;;;;3.38;2.03;;;12.80;90.30;;;;;;5110442;28;20044;-78
2022/05/20 04:17:34;;;;;;;4.00;2.00;;;12.70;90.30;;;;;;5111209;28;20560;-78
2022/05/20 04:20:05;;;;;;;4.03;2.63;;;12.70;90.30;;;;;;5077332;28;20043;-78
2022/05/20 04:22:37;;;;;;;5.32;3.08;;;12.70;90.30;;;;;;5093825;28;20044;-79
2022/05/20 04:25:08;;;;;;;5.18;3.00;;;12.80;90.30;;;;;;5099325;28;20545;-79
2022/05/20 04:27:35;;;;;;;5.15;2.95;;;12.80;90.30;;;;;;5086046;28;20096;-79
2022/05/20 04:30:03;;;;;;;4.40;2.80;;;12.80;90.30;;;;;;5081919;28;20104;-79
2022/05/20 04:32:33;;;;;;;7.05;2.92;;;12.90;90.30;;;;;;5093518;28;20065;-80
2022/05/20 04:35:00;;;;;;;5.45;3.55;;;12.90;90.30;;;;;;5110499;28;20134;-79
2022/05/20 04:37:28;;;;;;;5.35;3.22;;;12.90;90.60;;;;;;5094013;28;20039;-78
2022/05/20 04:39:58;;;;;;;5.65;3.50;;;13.00;90.30;;;;;;5099901;28;20035;-78
2022/05/20 04:48:00;;;;;;;5.72;3.47;;;13.00;90.20;;;;;;5098869;28;20511;-78
2022/05/20 04:50:27;;;;;;;5.68;3.75;;;13.00;90.20;;;;;;5084104;28;20130;-78
2022/05/20 04:52:54;;;;;;;5.88;3.17;;;13.10;90.20;;;;;;5114812;28;20043;-80
2022/05/20 04:55:21;;;;;;;6.80;3.55;;;13.10;90.20;;;;;;5075891;28;20101;-79
2022/05/20 04:57:51;;;;;;;6.80;4.10;;;13.10;90.20;;;;;;5114357;28;20516;-79
2022/05/20 05:00:20;;;;;;;4.82;3.15;;;13.10;90.10;;;;;;5111057;28;20473;-79
2022/05/20 05:02:47;;;;;;;6.40;4.25;;;13.20;90.20;;;;;;5104355;28;20040;-79
2022/05/20 05:05:19;;;;;;;4.97;3.53;;;13.20;90.10;;;;;;5088773;28;20040;-80
2022/05/20 05:07:49;;;;;;;7.72;4.30;;;13.20;90.10;;;;;;5110373;28;20052;-79
2022/05/20 05:10:20;;;;;;;5.80;3.53;;;13.30;90.10;;;;;;5097954;28;20067;-79
2022/05/20 05:12:54;;;;;;;5.95;3.83;;;13.40;90.00;;;;;;5112812;28;20067;-80
2022/05/20 05:15:22;;;;;;;6.30;4.05;;;13.40;90.00;;;;;;5106269;28;20486;-80
2022/05/20 05:20:35;;;;;;;6.60;4.22;;;13.60;89.90;;;;;;5097849;28;20453;-80
2022/05/20 05:23:04;;;;;;;7.32;4.60;;;13.60;89.90;;;;;;5113525;28;20105;-80
2022/05/20 05:25:37;;;;;;;6.28;4.32;;;13.70;89.80;;;;;;5095930;28;20048;-79
2022/05/20 05:28:05;;;;;;;9.32;4.55;;;13.70;89.70;;;;;;5112954;28;20770;-79
2022/05/20 05:30:32;;;;;;;7.90;5.03;;;13.80;89.60;;;;;;5097474;28;20487;-79
2022/05/20 05:32:59;;;;;;;9.85;5.70;;;13.90;89.60;;;;;;5089697;28;20114;-79
2022/05/20 05:35:29;;;;;;;8.02;5.40;;;13.90;89.40;;;;;;5096684;28;20040;-79
2022/05/20 05:37:57;;;;;;;8.07;5.13;;;14.00;89.40;;;;;;5108113;28;20051;-79
2022/05/20 05:40:27;;;;;;;6.82;5.30;;;14.00;89.30;;;;;;5107835;28;20089;-79
2022/05/20 05:42:55;;;;;;;8.63;5.55;;;14.10;89.20;;;;;;5097453;28;20131;-79
2022/05/20 05:45:24;;;;;;;11.43;5.95;;;14.20;89.00;;;;;;5084978;28;20380;-80
2022/05/20 05:48:00;;;;;;;8.90;5.88;;;14.30;89.00;;;;;;5099475;28;20047;-80
2022/05/20 05:50:28;;;;;;;8.75;6.55;;;14.30;88.90;;;;;;5096921;28;20172;-79
2022/05/20 05:52:57;;;;;;;9.15;6.13;;;14.30;88.90;;;;;;5113480;28;20048;-78
2022/05/20 05:55:25;;;;;;;11.48;6.28;;;14.40;88.90;;;;;;5113852;28;20051;-78
2022/05/20 05:57:52;;;;;;;10.07;6.95;;;14.50;88.80;;;;;;5096427;28;20812;-78
2022/05/20 06:00:20;;;;;;;12.10;6.50;;;14.60;88.70;;;;;;5096543;28;20454;-78
2022/05/20 06:02:47;;;;;;;9.75;6.78;;;14.70;88.50;;;;;;5094866;28;20442;-78
2022/05/20 06:05:15;;;;;;;9.18;5.93;;;14.80;88.30;;;;;;5113229;28;20925;-77
2022/05/20 06:07:42;;;;;;;9.98;5.18;;;15.00;88.20;;;;;;5112660;28;20400;-78
2022/05/20 06:10:13;;;;;;;10.07;6.00;;;15.10;88.00;;;;;;5089274;28;20047;-78
2022/05/20 06:12:40;;;;;;;7.63;5.00;;;15.20;88.40;;;;;;5090470;28;20164;-79
2022/05/20 06:15:10;;;;;;;10.65;6.35;;;15.30;87.70;;;;;;5066543;28;20038;-79
2022/05/20 06:17:37;;;;;;;12.20;7.45;;;15.40;87.60;;;;;;5113293;28;20050;-78
2022/05/20 06:20:04;;;;;;;9.07;6.00;;;15.40;87.50;;;;;;5060612;28;20454;-78
2022/05/20 06:22:31;;;;;;;9.82;5.63;;;15.60;87.30;;;;;;5083692;28;20492;-77
2022/05/20 06:24:59;;;;;;;7.03;4.72;;;15.70;87.10;;;;;;5075818;28;20043;-78
2022/05/20 06:27:26;;;;;;;9.77;5.40;;;15.80;87.00;;;;;;5092643;28;20047;-78
2022/05/20 06:29:57;;;;;;;7.35;5.55;;;15.90;86.80;;;;;;5104442;28;20047;-78
2022/05/20 06:32:24;;;;;;;8.43;5.25;;;16.00;87.10;;;;;;5100878;28;20035;-78
2022/05/20 06:40:36;;;;;;;11.30;6.18;;;16.30;86.00;;;;;;5062693;28;20048;-79
2022/05/20 06:43:04;;;;;;;8.30;5.43;;;16.30;85.80;;;;;;5081727;28;20055;-79
2022/05/20 06:45:34;;;;;;;6.90;4.93;;;16.40;85.60;;;;;;5088025;28;20036;-79
2022/05/20 06:48:36;;;;;;;6.97;4.97;;;16.50;85.50;;;;;;5115133;28;20042;-79
2022/05/20 06:51:31;;;;;;;7.85;4.70;;;16.60;85.30;;;;;;5112853;28;20447;-79
2022/05/20 06:54:11;;;;;;;7.45;4.57;;;16.70;85.00;;;;;;5112365;28;20051;-79
2022/05/20 06:56:44;;;;;;;7.57;4.93;;;16.80;84.90;;;;;;5117719;27;20090;-79
2022/05/20 06:59:36;;;;;;;11.20;4.72;;;16.90;84.70;;;;;;5105996;28;20062;-79
2022/05/20 07:02:05;;;;;;;7.25;4.97;;;17.00;84.50;;;;;;5092324;28;20040;-80
2022/05/20 07:05:08;;;;;;;6.68;4.43;;;17.00;84.20;;;;;;5099345;28;20028;-81
2022/05/20 07:07:39;;;;;;;6.82;4.05;;;17.10;84.10;;;;;;5113663;28;20055;-81
2022/05/20 07:10:13;;;;;;;6.93;4.10;;;17.20;84.00;;;;;;5089214;28;20135;-81
2022/05/20 07:12:44;;;;;;;5.95;3.53;;;17.30;83.80;;;;;;5110679;28;20065;-80
2022/05/20 07:15:34;;;;;;;6.95;4.65;;;17.40;83.60;;;;;;5081645;28;20118;-81
2022/05/20 07:18:04;;;;;;;;;;;17.50;83.20;;;;;;5109964;28;20049;-80
2022/05/20 07:20:31;;;;;;;6.85;4.35;;;17.50;83.20;;;;;;5099886;28;19970;-80
2022/05/20 07:23:01;;;;;;;7.75;5.25;;;17.60;83.30;;;;;;5111567;28;20148;-80
2022/05/20 07:25:33;;;;;;;6.95;4.53;;;17.70;82.80;;;;;;5095277;28;20044;-80
2022/05/20 07:28:00;;;;;;;8.35;5.30;;;17.80;82.80;;;;;;5094995;28;20042;-80
2022/05/20 07:30:29;;;;;;;5.43;3.75;;;17.90;82.70;;;;;;5111560;28;20039;-81
2022/05/20 07:32:56;;;;;;;7.18;4.03;;;17.90;82.50;;;;;;5107574;28;20372;-80
2022/05/20 07:35:31;;;;;;;7.40;4.07;;;18.10;82.50;;;;;;5075346;28;20040;-79
2022/05/20 07:37:59;;;;;;;8.32;5.28;;;18.20;82.20;;;;;;5109722;28;20410;-79
2022/05/20 07:40:34;;;;;;;8.52;4.93;;;18.30;81.80;;;;;;5112802;28;20039;-79
2022/05/20 07:43:02;;;;;;;7.45;4.75;;;18.40;81.50;;;;;;5112794;28;20040;-79
2022/05/20 07:46:14;;;;;;;7.25;4.70;;;18.40;81.40;;;;;;5102107;28;20093;-80
2022/05/20 07:48:41;;;;;;;7.32;5.70;;;18.60;81.10;;;;;;5099177;28;20039;-80
2022/05/20 07:54:09;;;;;;;8.25;5.57;;;18.70;80.30;;;;;;5100673;28;20148;-79
2022/05/20 07:57:22;;;;;;;7.70;5.07;;;18.60;80.50;;;;;;5102610;28;20050;-80
2022/05/20 07:59:52;;;;;;;8.48;5.20;;;18.70;80.40;;;;;;5094031;28;20044;-79
2022/05/20 08:02:42;;;;;;;8.00;5.32;;;18.80;80.20;;;;;;5112225;28;20039;-79
2022/05/20 08:05:27;;;;;;;10.70;5.82;;;18.80;79.90;;;;;;5074769;28;20044;-79
2022/05/20 08:08:05;;;;;;;8.13;4.78;;;18.80;79.90;;;;;;5075234;28;20048;-79
2022/05/20 08:10:34;;;;;;;7.28;4.88;;;18.80;80.00;;;;;;5110946;28;20096;-80
2022/05/20 08:13:04;;;;;;;7.93;4.82;;;18.90;79.80;;;;;;5097486;28;20462;-80
2022/05/20 08:15:34;;;;;;;7.15;4.18;;;19.00;79.20;;;;;;5098380;28;20046;-80
2022/05/20 08:18:01;;;;;;;6.60;4.03;;;19.10;79.00;;;;;;5092756;28;20039;-78
2022/05/20 08:20:30;;;;;;;6.43;4.13;;;19.10;78.50;;;;;;5093388;28;20044;-80
2022/05/20 08:23:00;;;;;;;5.63;3.50;;;19.20;78.50;;;;;;5100848;28;20069;-80
2022/05/20 08:25:29;;;;;;;5.80;3.03;;;19.50;78.10;;;;;;5107553;28;20044;-79
2022/05/20 08:27:56;;;;;;;6.60;3.50;;;19.60;77.50;;;;;;5079958;28;20101;-80
2022/05/20 08:30:25;;;;;;;6.45;3.05;;;19.70;77.00;;;;;;5055664;28;20054;-80
2022/05/20 08:32:52;;;;;;;5.03;2.80;;;19.80;76.60;;;;;;5081056;28;20039;-80
2022/05/20 08:35:28;;;;;;;7.90;3.65;;;20.00;76.30;;;;;;5073138;28;20036;-81
2022/05/20 08:37:56;;;;;;;5.60;3.08;;;20.20;75.80;;;;;;5111445;27;20047;-80
2022/05/20 08:40:47;;;;;;;5.05;2.33;;;20.20;75.50;;;;;;5090159;28;20063;-79
2022/05/20 08:43:14;;;;;;;5.65;2.20;;;20.30;75.40;;;;;;5109713;28;20090;-85
2022/05/20 08:45:41;;;;;;;4.32;2.13;;;20.40;75.30;;;;;;5093304;28;20063;-84
2022/05/20 08:48:11;;;;;;;5.70;2.80;;;20.40;75.10;;;;;;5080604;28;20131;-80
2022/05/20 08:50:45;;;;;;;5.82;2.13;;;20.50;74.90;;;;;;5090184;28;20052;-80
2022/05/20 08:53:25;;;;;;;3.90;2.25;;;20.70;74.60;;;;;;5114270;28;20139;-79
2022/05/20 08:55:52;;;;;;;5.22;2.97;;;20.70;74.40;;;;;;5114521;28;20032;-80
2022/05/20 08:58:24;;;;;;;4.95;3.15;;;20.70;74.10;;;;;;5114363;28;20036;-79
2022/05/20 09:00:51;;;;;;;4.57;2.53;;;20.80;74.40;;;;;;5094334;28;20040;-79
2022/05/20 09:03:19;;;;;;;4.72;2.03;;;20.80;74.40;;;;;;5091936;28;20065;-79
2022/05/20 09:05:46;;;;;;;5.45;2.92;;;20.90;73.50;;;;;;5097755;28;20116;-79
2022/05/20 09:08:28;;;;;;;3.40;2.10;;;21.10;73.10;;;;;;5091702;28;20470;-80
2022/05/20 09:10:58;;;;;;;5.00;2.78;;;21.20;72.70;;;;;;5107330;28;20126;-80
2022/05/20 09:16:18;;;;;;;4.77;1.63;;;21.40;72.00;;;;;;5106835;28;20040;-80
2022/05/20 09:19:02;;;;;;;6.05;2.60;;;21.50;71.60;;;;;;5084941;28;20510;-80
2022/05/20 09:21:41;;;;;;;3.90;2.00;;;21.50;71.00;;;;;;5112785;28;20040;-80
2022/05/20 09:24:35;;;;;;;4.40;2.70;;;21.40;70.90;;;;;;5113298;28;20043;-80
2022/05/20 09:27:13;;;;;;;6.22;3.17;;;21.50;70.40;;;;;;5093722;28;20044;-79
2022/05/20 09:29:48;;;;;;;4.80;3.10;;;21.60;70.20;;;;;;5112511;28;20043;-80
2022/05/20 09:32:21;;;;;;;4.25;2.70;;;21.60;69.90;;;;;;5112152;28;20060;-80
2022/05/20 09:35:06;;;;;;;5.35;2.72;;;21.60;69.90;;;;;;5099553;28;20115;-80
2022/05/20 09:37:41;;;;;;;3.80;2.53;;;21.70;69.70;;;;;;5098981;28;20048;-79
2022/05/20 09:40:20;;;;;;;5.97;2.75;;;21.80;69.80;;;;;;5067478;28;20047;-80
2022/05/20 09:43:09;;;;;;;5.10;2.85;;;22.00;69.30;;;;;;5114054;28;20071;-78
2022/05/20 09:45:47;;;;;;;7.80;2.95;;;21.90;69.30;;;;;;5108194;28;20117;-79
2022/05/20 09:48:20;;;;;;;4.45;2.35;;;22.00;69.20;;;;;;5096902;28;20048;-78
2022/05/20 09:51:24;;;;;;;3.33;1.90;;;22.00;69.10;;;;;;5106810;28;20074;-79
2022/05/20 09:54:05;;;;;;;3.15;1.83;;;22.00;68.80;;;;;;5085198;28;20047;-78
2022/05/20 09:56:38;;;;;;;3.53;1.92;;;22.10;68.90;;;;;;5107984;28;20039;-78
2022/05/20 09:59:30;;;;;;;4.50;2.70;;;22.10;68.50;;;;;;5081434;28;20052;-79
2022/05/20 10:02:06;;;;;;;4.63;2.57;;;22.20;68.00;;;;;;5112501;28;20130;-79
2022/05/20 10:05:04;;;;;;;3.20;1.83;;;22.30;68.00;;;;;;5110619;28;20090;-79
2022/05/20 10:07:37;;;;;;;4.00;1.92;;;22.40;67.70;;;;;;5106337;28;20130;-79
2022/05/20 10:10:20;;;;;;;3.30;1.75;;;22.60;67.60;;;;;;5092695;28;20052;-79
2022/05/20 10:12:50;;;;;;;3.90;1.92;;;22.70;67.20;;;;;;5092461;28;20109;-80
2022/05/20 10:15:28;;;;;;;3.55;2.00;;;22.90;67.10;;;;;;5104077;28;20043;-79
2022/05/20 10:18:01;;;;;;;3.55;2.30;;;23.10;66.20;;;;;;5097683;28;20166;-79
2022/05/20 10:20:47;;;;;;;5.13;2.95;;;23.00;66.00;;;;;;5101083;28;20075;-79
2022/05/20 10:23:20;;;;;;;4.10;2.05;;;22.90;65.80;;;;;;5095324;28;20051;-79
2022/05/20 10:25:50;;;;;;;3.03;1.70;;;22.90;66.20;;;;;;5112753;28;20067;-79
2022/05/20 10:34:21;;;;;;;4.28;2.50;;;22.80;65.30;;;;;;5110594;28;20488;-80
2022/05/20 10:37:01;;;;;;;2.95;1.42;;;22.70;65.50;;;;;;5102875;28;20036;-80
2022/05/20 10:39:31;;;;;;;4.47;1.83;;;22.80;65.20;;;;;;5111301;28;20492;-79
2022/05/20 10:42:36;;;;;;;2.90;1.30;;;22.90;64.80;;;;;;5083385;28;20047;-80
2022/05/20 10:48:35;;;;;;;2.78;1.20;;;23.30;64.10;;;;;;5106275;28;20051;-78
2022/05/20 10:51:15;;;;;;;3.65;1.38;;;23.50;63.20;;;;;;5112364;28;20564;-79
2022/05/20 10:53:55;;;;;;;3.90;1.63;;;23.60;62.60;;;;;;5091402;28;20070;-79
2022/05/20 10:56:29;;;;;;;3.85;1.98;;;23.80;62.20;;;;;;5111209;28;20055;-80
2022/05/20 10:59:01;;;;;;;2.72;1.38;;;23.90;61.50;;;;;;5111301;28;20131;-79
2022/05/20 11:01:58;;;;;;;2.70;1.30;;;24.10;61.20;;;;;;5111581;28;20149;-79
2022/05/20 11:04:43;;;;;;;3.13;1.23;;;24.20;60.80;;;;;;5106652;28;20115;-79
2022/05/20 11:07:31;;;;;;;5.30;2.03;;;24.20;60.30;;;;;;5111248;28;20050;-79
2022/05/20 11:10:10;;;;;;;3.33;1.48;;;24.20;60.30;;;;;;5089339;28;20561;-78
2022/05/20 11:13:16;;;;;;;2.17;0.90;;;24.20;60.30;;;;;;5092409;28;20451;-79
2022/05/20 11:16:08;;;;;;;3.47;1.40;;;24.30;60.00;;;;;;5103055;28;20050;-79
2022/05/20 11:18:53;;;;;;;2.50;1.02;;;24.10;59.10;;;;;;5101630;28;20032;-79
2022/05/20 11:21:32;;;;;;;3.20;1.75;;;24.00;59.50;;;;;;5112143;28;20040;-79
2022/05/20 11:24:31;;;;;;;2.92;1.60;;;24.00;59.50;;;;;;5113087;28;20059;-80
2022/05/20 11:27:27;;;;;;;3.83;1.67;;;24.00;59.60;;;;;;5056484;28;20094;-80
2022/05/20 11:30:20;;;;;;;3.28;1.83;;;24.10;59.40;;;;;;5098753;28;20411;-79
2022/05/20 11:33:14;;;;;;;4.18;1.88;;;24.10;59.20;;;;;;5098777;28;20047;-76
2022/05/20 11:36:26;;;;;;;3.30;1.50;;;24.10;59.10;;;;;;5092671;28;20098;-81
2022/05/20 11:39:02;;;;;;;3.95;2.03;;;24.10;59.10;;;;;;5100978;28;20116;-79
2022/05/20 11:41:38;;;;;;;3.17;1.67;;;24.20;59.40;;;;;;5090785;28;20556;-77
2022/05/20 11:44:21;;;;;;;3.60;2.20;;;24.20;59.50;;;;;;5103771;28;20048;-83
2022/05/20 11:46:49;;;;;;;;;;;24.20;59.40;;;;;;5095042;28;20039;-79
2022/05/20 11:49:45;;;;;;;3.33;1.73;;;24.20;59.80;;;;;;5087565;28;19977;-79
2022/05/20 11:52:21;;;;;;;2.63;1.60;;;24.30;59.30;;;;;;5097250;28;20047;-80
2022/05/20 11:54:54;;;;;;;4.88;1.60;;;24.10;59.70;;;;;;5102834;28;20059;-76
2022/05/20 11:57:38;;;;;;;4.25;2.45;;;24.00;60.00;;;;;;5105483;28;20043;-76
2022/05/20 12:00:13;;;;;;;4.70;2.60;;;23.80;60.20;;;;;;5117304;28;20051;-75
2022/05/20 12:02:48;;;;;;;4.57;2.15;;;23.70;60.50;;;;;;5094028;28;20028;-76
2022/05/20 12:05:20;;;;;;;4.88;2.72;;;23.40;60.90;;;;;;5082188;28;20065;-77
2022/05/20 12:07:47;;;;;;;4.18;2.10;;;23.30;61.30;;;;;;5108136;28;20048;-75
2022/05/20 12:10:39;;;;;;;4.53;2.58;;;23.10;61.60;;;;;;5089717;28;20152;-75
2022/05/20 12:13:15;;;;;;;;;;;23.00;61.80;;;;;;5111388;28;20044;-75
2022/05/20 12:15:47;;;;;;;3.55;2.30;;;22.90;62.50;;;;;;5106692;28;19927;-76
2022/05/20 12:24:12;;;;;;;4.07;2.38;;;22.90;62.40;;;;;;5106337;28;20047;-76
2022/05/20 12:24:21;;;;;;;4.00;1.92;;;22.60;63.00;;;;;;5106520;28;20549;-75
2022/05/20 12:26:53;;;;;;;3.83;2.08;;;22.40;63.40;;;;;;5108516;28;20060;-78
2022/05/20 12:29:35;;;;;;;5.03;2.63;;;22.20;63.90;;;;;;5089362;28;20096;-76
2022/05/20 12:32:40;;;;;;;4.13;2.63;;;22.10;64.10;;;;;;5093031;28;20050;-77
2022/05/20 12:35:23;;;;;;;4.72;2.65;;;22.00;64.40;;;;;;5094403;28;20100;-78
2022/05/20 12:37:56;;;;;;;4.40;2.42;;;21.80;64.80;;;;;;5096638;28;20093;-82
2022/05/20 12:40:26;;;;;;;5.47;3.08;;;21.70;65.20;;;;;;5088662;28;20048;-81
2022/05/20 12:43:39;;;;;;;4.93;2.67;;;21.60;65.60;;;;;;5102247;28;20040;-78
2022/05/20 12:46:14;;;;;;;6.05;3.10;;;21.50;66.00;;;;;;5075717;28;20124;-82
2022/05/20 12:48:42;;;;;;;5.53;3.08;;;21.40;66.70;;;;;;5089759;28;20048;-82
2022/05/20 12:51:11;;;;;;;6.93;3.05;;;21.20;67.20;;;;;;5105472;28;20102;-77
2022/05/20 12:53:38;;;;;;;10.77;4.93;;;21.10;67.90;;;;;;5093293;28;20097;-80
2022/05/20 12:56:23;;;;;;;7.88;4.40;;;21.00;68.70;;;;;;5110773;28;20131;-78
2022/05/20 12:58:50;;;;;;;7.18;4.93;;;20.80;69.40;;;;;;5111064;28;20458;-78
2022/05/20 13:01:18;;;;;;;5.90;3.60;;;20.60;70.10;;;;;;5114372;28;20036;-79
2022/05/20 13:03:51;;;;;;;7.22;4.18;;;20.50;70.80;;;;;;5080206;28;20051;-79
2022/05/20 13:06:25;;;;;;;9.15;4.93;;;20.40;71.50;;;;;;5079511;28;20040;-78
2022/05/20 13:09:04;;;;;;;7.05;4.30;;;20.20;72.00;;;;;;5114845;28;20048;-79
2022/05/20 13:11:44;;;;;;;6.32;3.72;;;20.10;72.50;;;;;;5109909;28;20483;-80
2022/05/20 13:14:22;;;;;;;7.95;5.25;;;20.00;73.00;;;;;;5107419;28;20434;-78
2022/05/20 13:16:58;;;;;;;8.13;5.70;;;20.00;73.60;;;;;;5112044;28;20043;-78
2022/05/20 13:19:38;;;;;;;8.88;5.82;;;19.90;74.20;;;;;;5083433;28;20055;-80
2022/05/20 13:22:07;;;;;;;8.82;5.38;;;19.80;74.80;;;;;;5113674;28;20047;-80
2022/05/20 13:24:37;;;;;;;8.82;4.90;;;19.80;75.20;;;;;;5114160;28;20088;-78
2022/05/20 13:27:04;;;;;;;9.38;5.85;;;19.80;75.50;;;;;;5106905;28;20038;-80
2022/05/20 13:29:32;;;;;;;9.25;5.78;;;20.00;75.60;;;;;;5097291;28;20040;-78
2022/05/20 13:32:15;;;;;;;7.43;5.07;;;20.10;75.60;;;;;;5088552;28;20104;-80
2022/05/20 13:34:44;;;;;;;9.45;5.72;;;20.20;75.70;;;;;;5114222;28;20081;-81
2022/05/20 13:37:14;;;;;;;8.85;6.35;;;20.30;75.90;;;;;;5113679;28;20049;-82
2022/05/20 13:39:43;;;;;;;7.75;5.28;;;20.30;76.10;;;;;;5113816;28;20044;-79
2022/05/20 13:42:14;;;;;;;10.18;6.20;;;20.40;76.30;;;;;;5097242;28;20043;-82
2022/05/20 13:44:45;;;;;;;10.05;6.53;;;20.50;76.50;;;;;;5097466;28;20040;-77
2022/05/20 13:50:04;;;;;;;9.20;6.03;;;20.50;77.00;;;;;;5094771;28;20477;-79
2022/05/20 13:52:31;;;;;;;8.45;5.03;;;20.50;77.10;;;;;;5098569;28;20450;-77
2022/05/20 13:55:07;;;;;;;7.47;5.55;;;20.60;77.30;;;;;;5068192;28;20039;-81
2022/05/20 13:57:42;;;;;;;7.28;5.38;;;20.50;77.60;;;;;;5107525;28;20067;-78
2022/05/20 14:00:29;;;;;;;8.73;6.00;;;20.40;77.90;;;;;;5111215;28;20039;-78
2022/05/20 14:03:14;;;;;;;8.90;6.15;;;20.30;78.20;;;;;;5101930;27;20046;-77
2022/05/20 14:05:49;;;;;;;13.60;9.60;;;20.20;78.80;;;;;;5105006;28;20075;-76